sensor_id;sensor_type;location;lat;lon;timestamp;temperature;humidity
17146;DHT22;8688;54.444;18.444;2022-07-29T00:01:27;11.80;99.90
17146;DHT22;8688;54.444;18.444;2022-07-29T00:03:54;11.70;99.90
17146;DHT22;8688;54.444;18.444;2022-07-29T00:06:21;11.80;99.90
17146;DHT22;8688;54.444;18.444;2022-07-29T00:08:50;11.90;99.90
17146;DHT22;8688;54.444;18.444;2022-07-29T00:11:18;11.90;99.90
17146;DHT22;8688;54.444;18.444;2022-07-29T00:13:45;12.00;99.90
17146;DHT22;8688;54.444;18.444;2022-07-29T00:16:12;12.00;99.90
17146;DHT22;8688;54.444;18.444;2022-07-29T00:18:43;12.00;99.90
17146;DHT22;8688;54.444;18.444;2022-07-29T00:21:13;12.00;99.90
17146;DHT22;8688;54.444;18.444;2022-07-29T00:23:41;12.00;99.90
17146;DHT22;8688;54.444;18.444;2022-07-29T00:26:10;11.90;99.90
17146;DHT22;8688;54.444;18.444;2022-07-29T00:28:37;11.90;99.90
17146;DHT22;8688;54.444;18.444;2022-07-29T00:31:05;11.90;99.90
17146;DHT22;8688;54.444;18.444;2022-07-29T00:33:33;11.80;99.90
17146;DHT22;8688;54.444;18.444;2022-07-29T00:36:01;11.80;99.90
17146;DHT22;8688;54.444;18.444;2022-07-29T00:38:27;11.80;99.90
17146;DHT22;8688;54.444;18.444;2022-07-29T00:40:54;11.80;99.90
17146;DHT22;8688;54.444;18.444;2022-07-29T00:43:23;11.70;99.90
17146;DHT22;8688;54.444;18.444;2022-07-29T00:45:50;11.60;99.90
17146;DHT22;8688;54.444;18.444;2022-07-29T00:48:18;11.60;99.90
17146;DHT22;8688;54.444;18.444;2022-07-29T00:50:45;11.50;99.90
17146;DHT22;8688;54.444;18.444;2022-07-29T00:53:13;11.40;99.90
17146;DHT22;8688;54.444;18.444;2022-07-29T00:55:43;11.40;99.90
17146;DHT22;8688;54.444;18.444;2022-07-29T00:58:12;11.40;99.90
17146;DHT22;8688;54.444;18.444;2022-07-29T01:00:44;11.40;99.90
17146;DHT22;8688;54.444;18.444;2022-07-29T01:03:11;11.30;99.90
17146;DHT22;8688;54.444;18.444;2022-07-29T01:05:39;11.30;99.90
17146;DHT22;8688;54.444;18.444;2022-07-29T01:08:08;11.20;99.90
17146;DHT22;8688;54.444;18.444;2022-07-29T01:10:36;11.20;99.90
17146;DHT22;8688;54.444;18.444;2022-07-29T01:13:05;11.10;99.90
17146;DHT22;8688;54.444;18.444;2022-07-29T01:15:33;11.20;99.90
17146;DHT22;8688;54.444;18.444;2022-07-29T01:18:11;11.20;99.90
17146;DHT22;8688;54.444;18.444;2022-07-29T01:21:00;11.20;99.90
17146;DHT22;8688;54.444;18.444;2022-07-29T01:23:47;11.10;99.90
17146;DHT22;8688;54.444;18.444;2022-07-29T01:26:33;11.00;99.90
17146;DHT22;8688;54.444;18.444;2022-07-29T01:29:06;10.80;99.90
17146;DHT22;8688;54.444;18.444;2022-07-29T01:31:42;10.80;99.90
17146;DHT22;8688;54.444;18.444;2022-07-29T01:34:17;10.80;99.90
17146;DHT22;8688;54.444;18.444;2022-07-29T01:36:50;10.80;99.90
17146;DHT22;8688;54.444;18.444;2022-07-29T01:39:20;10.80;99.90
17146;DHT22;8688;54.444;18.444;2022-07-29T01:41:56;10.80;99.90
17146;DHT22;8688;54.444;18.444;2022-07-29T01:44:30;10.90;99.90
17146;DHT22;8688;54.444;18.444;2022-07-29T01:47:02;10.90;99.90
17146;DHT22;8688;54.444;18.444;2022-07-29T01:49:36;10.90;99.90
17146;DHT22;8688;54.444;18.444;2022-07-29T01:52:11;10.80;99.90
17146;DHT22;8688;54.444;18.444;2022-07-29T01:54:43;10.70;99.90
17146;DHT22;8688;54.444;18.444;2022-07-29T01:57:14;10.70;99.90
17146;DHT22;8688;54.444;18.444;2022-07-29T01:59:47;10.70;99.90
17146;DHT22;8688;54.444;18.444;2022-07-29T02:02:15;10.70;99.90
17146;DHT22;8688;54.444;18.444;2022-07-29T02:04:45;10.70;99.90
17146;DHT22;8688;54.444;18.444;2022-07-29T02:07:18;10.70;99.90
17146;DHT22;8688;54.444;18.444;2022-07-29T02:09:47;10.70;99.90
17146;DHT22;8688;54.444;18.444;2022-07-29T02:12:18;10.70;99.90
17146;DHT22;8688;54.444;18.444;2022-07-29T02:14:49;10.80;99.90
17146;DHT22;8688;54.444;18.444;2022-07-29T02:17:21;10.70;99.90
17146;DHT22;8688;54.444;18.444;2022-07-29T02:19:50;10.70;99.90
17146;DHT22;8688;54.444;18.444;2022-07-29T02:22:18;10.60;99.90
17146;DHT22;8688;54.444;18.444;2022-07-29T02:24:47;10.60;99.90
17146;DHT22;8688;54.444;18.444;2022-07-29T02:27:16;10.60;99.90
17146;DHT22;8688;54.444;18.444;2022-07-29T02:29:47;10.60;99.90
17146;DHT22;8688;54.444;18.444;2022-07-29T02:32:16;10.60;99.90
17146;DHT22;8688;54.444;18.444;2022-07-29T02:34:45;10.60;99.90
17146;DHT22;8688;54.444;18.444;2022-07-29T02:37:13;10.60;99.90
17146;DHT22;8688;54.444;18.444;2022-07-29T02:39:45;10.50;99.90
17146;DHT22;8688;54.444;18.444;2022-07-29T02:42:16;10.50;99.90
17146;DHT22;8688;54.444;18.444;2022-07-29T02:44:44;10.40;99.90
17146;DHT22;8688;54.444;18.444;2022-07-29T02:47:18;10.40;99.90
17146;DHT22;8688;54.444;18.444;2022-07-29T02:49:52;10.50;99.90
17146;DHT22;8688;54.444;18.444;2022-07-29T02:52:26;10.50;99.90
17146;DHT22;8688;54.444;18.444;2022-07-29T02:54:55;10.50;99.90
17146;DHT22;8688;54.444;18.444;2022-07-29T02:57:32;10.60;99.90
17146;DHT22;8688;54.444;18.444;2022-07-29T03:00:03;10.60;99.90
17146;DHT22;8688;54.444;18.444;2022-07-29T03:02:36;10.60;99.90
17146;DHT22;8688;54.444;18.444;2022-07-29T03:05:06;10.60;99.90
17146;DHT22;8688;54.444;18.444;2022-07-29T03:07:35;10.70;99.90
17146;DHT22;8688;54.444;18.444;2022-07-29T03:10:05;10.70;99.90
17146;DHT22;8688;54.444;18.444;2022-07-29T03:12:34;10.70;99.90
17146;DHT22;8688;54.444;18.444;2022-07-29T03:15:03;10.70;99.90
17146;DHT22;8688;54.444;18.444;2022-07-29T03:17:32;10.80;99.90
17146;DHT22;8688;54.444;18.444;2022-07-29T03:20:00;10.80;99.90
17146;DHT22;8688;54.444;18.444;2022-07-29T03:22:28;10.90;99.90
17146;DHT22;8688;54.444;18.444;2022-07-29T03:24:56;10.90;99.90
17146;DHT22;8688;54.444;18.444;2022-07-29T03:27:23;11.00;99.90
17146;DHT22;8688;54.444;18.444;2022-07-29T03:29:50;11.10;99.90
17146;DHT22;8688;54.444;18.444;2022-07-29T03:32:18;11.20;99.90
17146;DHT22;8688;54.444;18.444;2022-07-29T03:34:46;11.30;99.90
17146;DHT22;8688;54.444;18.444;2022-07-29T03:37:14;11.40;99.90
17146;DHT22;8688;54.444;18.444;2022-07-29T03:39:41;11.30;99.90
17146;DHT22;8688;54.444;18.444;2022-07-29T03:42:14;11.30;99.90
17146;DHT22;8688;54.444;18.444;2022-07-29T03:44:46;11.40;99.90
17146;DHT22;8688;54.444;18.444;2022-07-29T03:47:17;11.50;99.90
17146;DHT22;8688;54.444;18.444;2022-07-29T03:49:49;11.60;99.90
17146;DHT22;8688;54.444;18.444;2022-07-29T03:52:17;11.70;99.90
17146;DHT22;8688;54.444;18.444;2022-07-29T03:54:45;11.70;99.90
17146;DHT22;8688;54.444;18.444;2022-07-29T03:57:13;11.80;99.90
17146;DHT22;8688;54.444;18.444;2022-07-29T03:59:42;11.90;99.90
17146;DHT22;8688;54.444;18.444;2022-07-29T04:02:11;11.90;99.90
17146;DHT22;8688;54.444;18.444;2022-07-29T04:04:39;12.00;99.90
17146;DHT22;8688;54.444;18.444;2022-07-29T04:07:11;12.00;99.90
17146;DHT22;8688;54.444;18.444;2022-07-29T04:09:39;12.00;99.90
17146;DHT22;8688;54.444;18.444;2022-07-29T04:12:09;12.10;99.90
17146;DHT22;8688;54.444;18.444;2022-07-29T04:14:37;12.10;99.90
17146;DHT22;8688;54.444;18.444;2022-07-29T04:17:04;12.10;99.90
17146;DHT22;8688;54.444;18.444;2022-07-29T04:19:32;12.20;99.90
17146;DHT22;8688;54.444;18.444;2022-07-29T04:22:00;12.30;99.90
17146;DHT22;8688;54.444;18.444;2022-07-29T04:24:29;12.30;99.90
17146;DHT22;8688;54.444;18.444;2022-07-29T04:26:56;12.40;99.90
17146;DHT22;8688;54.444;18.444;2022-07-29T04:29:23;12.40;99.90
17146;DHT22;8688;54.444;18.444;2022-07-29T04:31:51;12.40;99.90
17146;DHT22;8688;54.444;18.444;2022-07-29T04:34:18;12.50;99.90
17146;DHT22;8688;54.444;18.444;2022-07-29T04:36:45;12.60;99.90
17146;DHT22;8688;54.444;18.444;2022-07-29T04:39:13;12.70;99.90
17146;DHT22;8688;54.444;18.444;2022-07-29T04:41:42;12.80;99.90
17146;DHT22;8688;54.444;18.444;2022-07-29T04:44:09;13.00;99.90
17146;DHT22;8688;54.444;18.444;2022-07-29T04:46:39;13.20;99.90
17146;DHT22;8688;54.444;18.444;2022-07-29T04:49:06;13.30;99.90
17146;DHT22;8688;54.444;18.444;2022-07-29T04:51:34;13.40;99.90
17146;DHT22;8688;54.444;18.444;2022-07-29T04:54:01;13.70;99.90
17146;DHT22;8688;54.444;18.444;2022-07-29T04:56:29;13.90;99.90
17146;DHT22;8688;54.444;18.444;2022-07-29T04:58:57;14.10;99.90
17146;DHT22;8688;54.444;18.444;2022-07-29T05:01:25;14.20;99.90
17146;DHT22;8688;54.444;18.444;2022-07-29T05:03:52;14.40;99.90
17146;DHT22;8688;54.444;18.444;2022-07-29T05:06:19;14.50;99.90
17146;DHT22;8688;54.444;18.444;2022-07-29T05:08:47;14.70;99.90
17146;DHT22;8688;54.444;18.444;2022-07-29T05:11:14;15.00;99.90
17146;DHT22;8688;54.444;18.444;2022-07-29T05:13:41;15.10;99.90
17146;DHT22;8688;54.444;18.444;2022-07-29T05:16:13;15.20;99.90
17146;DHT22;8688;54.444;18.444;2022-07-29T05:18:41;15.20;99.90
17146;DHT22;8688;54.444;18.444;2022-07-29T05:21:08;15.20;99.90
17146;DHT22;8688;54.444;18.444;2022-07-29T05:23:36;15.30;99.90
17146;DHT22;8688;54.444;18.444;2022-07-29T05:26:03;15.40;99.90
17146;DHT22;8688;54.444;18.444;2022-07-29T05:28:33;15.50;99.90
17146;DHT22;8688;54.444;18.444;2022-07-29T05:31:00;15.60;99.90
17146;DHT22;8688;54.444;18.444;2022-07-29T05:33:29;15.70;99.90
17146;DHT22;8688;54.444;18.444;2022-07-29T05:35:57;15.80;99.90
17146;DHT22;8688;54.444;18.444;2022-07-29T05:38:24;15.80;99.90
17146;DHT22;8688;54.444;18.444;2022-07-29T05:40:52;15.80;99.90
17146;DHT22;8688;54.444;18.444;2022-07-29T05:43:19;15.90;99.90
17146;DHT22;8688;54.444;18.444;2022-07-29T05:45:46;15.90;99.90
17146;DHT22;8688;54.444;18.444;2022-07-29T05:48:14;16.00;99.90
17146;DHT22;8688;54.444;18.444;2022-07-29T05:50:45;16.00;99.90
17146;DHT22;8688;54.444;18.444;2022-07-29T05:53:12;16.00;99.90
17146;DHT22;8688;54.444;18.444;2022-07-29T05:55:42;16.10;99.90
17146;DHT22;8688;54.444;18.444;2022-07-29T05:58:09;16.10;99.90
17146;DHT22;8688;54.444;18.444;2022-07-29T06:00:36;16.20;99.90
17146;DHT22;8688;54.444;18.444;2022-07-29T06:03:04;16.20;99.90
17146;DHT22;8688;54.444;18.444;2022-07-29T06:05:31;16.20;99.90
17146;DHT22;8688;54.444;18.444;2022-07-29T06:08:00;16.30;99.90
17146;DHT22;8688;54.444;18.444;2022-07-29T06:10:27;16.30;99.90
17146;DHT22;8688;54.444;18.444;2022-07-29T06:12:54;16.30;99.90
17146;DHT22;8688;54.444;18.444;2022-07-29T06:15:22;16.40;99.90
17146;DHT22;8688;54.444;18.444;2022-07-29T06:17:49;16.50;99.90
17146;DHT22;8688;54.444;18.444;2022-07-29T06:20:17;16.60;99.90
17146;DHT22;8688;54.444;18.444;2022-07-29T06:22:44;16.60;99.90
17146;DHT22;8688;54.444;18.444;2022-07-29T06:25:13;16.60;99.90
17146;DHT22;8688;54.444;18.444;2022-07-29T06:27:41;16.70;99.90
17146;DHT22;8688;54.444;18.444;2022-07-29T06:30:09;16.80;99.90
17146;DHT22;8688;54.444;18.444;2022-07-29T06:32:36;16.80;99.90
17146;DHT22;8688;54.444;18.444;2022-07-29T06:35:05;16.90;99.90
17146;DHT22;8688;54.444;18.444;2022-07-29T06:37:32;16.90;99.90
17146;DHT22;8688;54.444;18.444;2022-07-29T06:40:00;17.00;99.90
17146;DHT22;8688;54.444;18.444;2022-07-29T06:42:47;17.10;99.90
17146;DHT22;8688;54.444;18.444;2022-07-29T06:45:14;17.30;99.90
17146;DHT22;8688;54.444;18.444;2022-07-29T06:47:41;17.40;99.90
17146;DHT22;8688;54.444;18.444;2022-07-29T06:50:09;17.50;99.90
17146;DHT22;8688;54.444;18.444;2022-07-29T06:52:38;17.60;99.90
17146;DHT22;8688;54.444;18.444;2022-07-29T06:55:07;17.70;99.90
17146;DHT22;8688;54.444;18.444;2022-07-29T06:57:35;17.70;99.90
17146;DHT22;8688;54.444;18.444;2022-07-29T07:00:05;17.80;99.90
17146;DHT22;8688;54.444;18.444;2022-07-29T07:02:33;17.90;99.90
17146;DHT22;8688;54.444;18.444;2022-07-29T07:05:01;17.90;99.90
17146;DHT22;8688;54.444;18.444;2022-07-29T07:07:28;18.00;99.90
17146;DHT22;8688;54.444;18.444;2022-07-29T07:09:56;18.00;99.90
17146;DHT22;8688;54.444;18.444;2022-07-29T07:12:23;18.00;1.00
17146;DHT22;8688;54.444;18.444;2022-07-29T07:14:51;18.10;1.00
17146;DHT22;8688;54.444;18.444;2022-07-29T07:17:20;18.20;1.00
17146;DHT22;8688;54.444;18.444;2022-07-29T07:19:47;18.30;1.00
17146;DHT22;8688;54.444;18.444;2022-07-29T07:22:15;18.50;77.20
17146;DHT22;8688;54.444;18.444;2022-07-29T07:24:42;18.70;99.90
17146;DHT22;8688;54.444;18.444;2022-07-29T07:27:09;18.90;99.90
17146;DHT22;8688;54.444;18.444;2022-07-29T07:29:37;18.90;1.00
17146;DHT22;8688;54.444;18.444;2022-07-29T07:32:07;19.00;99.90
17146;DHT22;8688;54.444;18.444;2022-07-29T07:34:36;19.00;1.00
17146;DHT22;8688;54.444;18.444;2022-07-29T07:37:03;18.90;18.50
17146;DHT22;8688;54.444;18.444;2022-07-29T07:39:31;18.70;1.00
17146;DHT22;8688;54.444;18.444;2022-07-29T07:41:59;18.60;99.90
17146;DHT22;8688;54.444;18.444;2022-07-29T07:44:26;18.60;1.00
17146;DHT22;8688;54.444;18.444;2022-07-29T07:46:53;18.80;42.60
17146;DHT22;8688;54.444;18.444;2022-07-29T07:49:21;18.90;99.90
17146;DHT22;8688;54.444;18.444;2022-07-29T07:51:50;19.00;1.00
17146;DHT22;8688;54.444;18.444;2022-07-29T07:54:18;19.10;99.90
17146;DHT22;8688;54.444;18.444;2022-07-29T07:56:46;19.20;99.90
17146;DHT22;8688;54.444;18.444;2022-07-29T07:59:15;19.30;1.00
17146;DHT22;8688;54.444;18.444;2022-07-29T08:01:42;19.50;1.00
17146;DHT22;8688;54.444;18.444;2022-07-29T08:04:10;19.60;1.00
17146;DHT22;8688;54.444;18.444;2022-07-29T08:06:38;19.60;99.90
17146;DHT22;8688;54.444;18.444;2022-07-29T08:09:07;19.50;99.90
17146;DHT22;8688;54.444;18.444;2022-07-29T08:11:34;19.40;99.90
17146;DHT22;8688;54.444;18.444;2022-07-29T08:14:02;19.30;99.90
17146;DHT22;8688;54.444;18.444;2022-07-29T08:16:29;19.30;99.90
17146;DHT22;8688;54.444;18.444;2022-07-29T08:18:56;19.40;99.90
17146;DHT22;8688;54.444;18.444;2022-07-29T08:21:24;19.40;40.50
17146;DHT22;8688;54.444;18.444;2022-07-29T08:23:52;19.40;1.00
17146;DHT22;8688;54.444;18.444;2022-07-29T08:26:41;19.20;1.00
17146;DHT22;8688;54.444;18.444;2022-07-29T08:29:09;19.10;1.00
17146;DHT22;8688;54.444;18.444;2022-07-29T08:31:37;19.20;51.20
17146;DHT22;8688;54.444;18.444;2022-07-29T08:34:05;19.20;28.30
17146;DHT22;8688;54.444;18.444;2022-07-29T08:36:33;19.30;1.00
17146;DHT22;8688;54.444;18.444;2022-07-29T08:39:04;19.20;1.00
17146;DHT22;8688;54.444;18.444;2022-07-29T08:41:32;19.10;1.00
17146;DHT22;8688;54.444;18.444;2022-07-29T08:44:01;19.10;1.00
17146;DHT22;8688;54.444;18.444;2022-07-29T08:46:28;19.10;1.00
17146;DHT22;8688;54.444;18.444;2022-07-29T08:48:56;19.30;1.00
17146;DHT22;8688;54.444;18.444;2022-07-29T08:51:24;19.40;1.00
17146;DHT22;8688;54.444;18.444;2022-07-29T08:53:52;19.50;1.00
17146;DHT22;8688;54.444;18.444;2022-07-29T08:56:22;19.60;1.00
17146;DHT22;8688;54.444;18.444;2022-07-29T08:58:50;19.70;1.00
17146;DHT22;8688;54.444;18.444;2022-07-29T09:01:25;19.60;99.90
17146;DHT22;8688;54.444;18.444;2022-07-29T09:03:55;19.70;99.90
17146;DHT22;8688;54.444;18.444;2022-07-29T09:06:22;19.70;99.90
17146;DHT22;8688;54.444;18.444;2022-07-29T09:08:52;19.70;99.90
17146;DHT22;8688;54.444;18.444;2022-07-29T09:11:19;19.80;99.90
17146;DHT22;8688;54.444;18.444;2022-07-29T09:13:47;19.70;99.90
17146;DHT22;8688;54.444;18.444;2022-07-29T09:16:15;19.70;99.90
17146;DHT22;8688;54.444;18.444;2022-07-29T09:18:46;19.70;75.20
17146;DHT22;8688;54.444;18.444;2022-07-29T09:21:15;19.80;46.40
17146;DHT22;8688;54.444;18.444;2022-07-29T09:24:03;19.80;1.00
17146;DHT22;8688;54.444;18.444;2022-07-29T09:26:31;19.70;1.00
17146;DHT22;8688;54.444;18.444;2022-07-29T09:28:59;19.70;1.00
17146;DHT22;8688;54.444;18.444;2022-07-29T09:31:33;19.80;1.00
17146;DHT22;8688;54.444;18.444;2022-07-29T09:34:04;19.90;1.00
17146;DHT22;8688;54.444;18.444;2022-07-29T09:36:39;19.70;1.00
17146;DHT22;8688;54.444;18.444;2022-07-29T09:39:06;19.60;1.00
17146;DHT22;8688;54.444;18.444;2022-07-29T09:41:45;19.60;1.00
17146;DHT22;8688;54.444;18.444;2022-07-29T09:44:13;19.70;1.00
17146;DHT22;8688;54.444;18.444;2022-07-29T09:46:51;19.70;1.00
17146;DHT22;8688;54.444;18.444;2022-07-29T09:49:20;19.80;1.00
17146;DHT22;8688;54.444;18.444;2022-07-29T09:51:59;19.70;1.00
17146;DHT22;8688;54.444;18.444;2022-07-29T09:54:27;19.70;1.00
17146;DHT22;8688;54.444;18.444;2022-07-29T09:57:00;19.70;1.00
17146;DHT22;8688;54.444;18.444;2022-07-29T09:59:27;19.70;1.00
17146;DHT22;8688;54.444;18.444;2022-07-29T10:01:54;19.80;1.00
17146;DHT22;8688;54.444;18.444;2022-07-29T10:04:24;19.80;1.00
17146;DHT22;8688;54.444;18.444;2022-07-29T10:06:58;19.70;1.00
17146;DHT22;8688;54.444;18.444;2022-07-29T10:09:26;19.80;1.00
17146;DHT22;8688;54.444;18.444;2022-07-29T10:12:05;19.80;99.90
17146;DHT22;8688;54.444;18.444;2022-07-29T10:14:33;19.70;2.50
17146;DHT22;8688;54.444;18.444;2022-07-29T10:17:00;19.80;25.20
17146;DHT22;8688;54.444;18.444;2022-07-29T10:19:30;19.80;82.00
17146;DHT22;8688;54.444;18.444;2022-07-29T10:21:59;19.90;49.50
17146;DHT22;8688;54.444;18.444;2022-07-29T10:24:27;20.00;1.00
17146;DHT22;8688;54.444;18.444;2022-07-29T10:26:56;20.00;1.00
17146;DHT22;8688;54.444;18.444;2022-07-29T10:29:24;20.00;1.00
17146;DHT22;8688;54.444;18.444;2022-07-29T10:32:04;20.00;1.00
17146;DHT22;8688;54.444;18.444;2022-07-29T10:34:57;20.00;1.00
17146;DHT22;8688;54.444;18.444;2022-07-29T10:37:39;20.00;1.00
17146;DHT22;8688;54.444;18.444;2022-07-29T10:40:21;20.00;1.00
17146;DHT22;8688;54.444;18.444;2022-07-29T10:43:17;20.00;1.00
17146;DHT22;8688;54.444;18.444;2022-07-29T10:45:46;20.10;1.00
17146;DHT22;8688;54.444;18.444;2022-07-29T10:48:14;20.00;1.00
17146;DHT22;8688;54.444;18.444;2022-07-29T10:50:58;20.00;1.00
17146;DHT22;8688;54.444;18.444;2022-07-29T10:53:46;20.00;1.00
17146;DHT22;8688;54.444;18.444;2022-07-29T10:56:24;20.10;1.00
17146;DHT22;8688;54.444;18.444;2022-07-29T10:59:25;20.00;1.00
17146;DHT22;8688;54.444;18.444;2022-07-29T11:01:57;20.00;1.00
17146;DHT22;8688;54.444;18.444;2022-07-29T11:05:01;20.00;1.00
17146;DHT22;8688;54.444;18.444;2022-07-29T11:07:30;20.10;1.00
17146;DHT22;8688;54.444;18.444;2022-07-29T11:10:23;20.20;1.00
17146;DHT22;8688;54.444;18.444;2022-07-29T11:12:51;20.20;1.00
17146;DHT22;8688;54.444;18.444;2022-07-29T11:15:20;20.30;1.00
17146;DHT22;8688;54.444;18.444;2022-07-29T11:18:06;20.30;1.00
17146;DHT22;8688;54.444;18.444;2022-07-29T11:20:39;20.30;1.00
17146;DHT22;8688;54.444;18.444;2022-07-29T11:23:21;20.40;1.00
17146;DHT22;8688;54.444;18.444;2022-07-29T11:26:18;20.50;1.00
17146;DHT22;8688;54.444;18.444;2022-07-29T11:28:57;20.50;1.00
17146;DHT22;8688;54.444;18.444;2022-07-29T11:31:34;20.50;1.00
17146;DHT22;8688;54.444;18.444;2022-07-29T11:34:22;20.40;1.00
17146;DHT22;8688;54.444;18.444;2022-07-29T11:37:19;20.20;1.00
17146;DHT22;8688;54.444;18.444;2022-07-29T11:42:49;20.40;1.00
17146;DHT22;8688;54.444;18.444;2022-07-29T11:45:22;20.50;1.00
17146;DHT22;8688;54.444;18.444;2022-07-29T11:47:55;20.50;1.00
17146;DHT22;8688;54.444;18.444;2022-07-29T11:50:33;20.70;1.00
17146;DHT22;8688;54.444;18.444;2022-07-29T11:53:02;20.80;1.00
17146;DHT22;8688;54.444;18.444;2022-07-29T11:55:31;20.90;1.00
17146;DHT22;8688;54.444;18.444;2022-07-29T11:58:01;20.90;1.00
17146;DHT22;8688;54.444;18.444;2022-07-29T12:00:31;20.90;1.00
17146;DHT22;8688;54.444;18.444;2022-07-29T12:03:00;20.70;1.00
17146;DHT22;8688;54.444;18.444;2022-07-29T12:05:45;20.70;1.00
17146;DHT22;8688;54.444;18.444;2022-07-29T12:08:14;21.00;1.00
17146;DHT22;8688;54.444;18.444;2022-07-29T12:10:43;21.10;1.00
17146;DHT22;8688;54.444;18.444;2022-07-29T12:13:12;21.20;1.00
17146;DHT22;8688;54.444;18.444;2022-07-29T12:15:51;21.20;1.00
17146;DHT22;8688;54.444;18.444;2022-07-29T12:18:20;21.30;1.00
17146;DHT22;8688;54.444;18.444;2022-07-29T12:20:47;21.50;1.00
17146;DHT22;8688;54.444;18.444;2022-07-29T12:23:15;21.50;1.00
17146;DHT22;8688;54.444;18.444;2022-07-29T12:25:44;21.40;1.00
17146;DHT22;8688;54.444;18.444;2022-07-29T12:28:13;21.30;1.00
17146;DHT22;8688;54.444;18.444;2022-07-29T12:30:43;21.30;1.00
17146;DHT22;8688;54.444;18.444;2022-07-29T12:33:17;21.40;1.00
17146;DHT22;8688;54.444;18.444;2022-07-29T12:35:48;21.30;1.00
17146;DHT22;8688;54.444;18.444;2022-07-29T12:38:16;21.20;1.00
17146;DHT22;8688;54.444;18.444;2022-07-29T12:40:46;21.00;1.00
17146;DHT22;8688;54.444;18.444;2022-07-29T12:43:15;21.00;1.00
17146;DHT22;8688;54.444;18.444;2022-07-29T12:45:44;21.10;1.00
17146;DHT22;8688;54.444;18.444;2022-07-29T12:48:12;21.10;1.00
17146;DHT22;8688;54.444;18.444;2022-07-29T12:50:54;21.20;1.00
17146;DHT22;8688;54.444;18.444;2022-07-29T12:53:22;21.20;1.00
17146;DHT22;8688;54.444;18.444;2022-07-29T12:55:54;21.20;1.00
17146;DHT22;8688;54.444;18.444;2022-07-29T12:58:33;21.30;1.00
17146;DHT22;8688;54.444;18.444;2022-07-29T13:01:05;21.60;1.00
17146;DHT22;8688;54.444;18.444;2022-07-29T13:03:52;21.40;1.00
17146;DHT22;8688;54.444;18.444;2022-07-29T13:06:38;21.40;99.90
17146;DHT22;8688;54.444;18.444;2022-07-29T13:09:10;21.60;99.90
17146;DHT22;8688;54.444;18.444;2022-07-29T13:11:42;21.30;99.90
17146;DHT22;8688;54.444;18.444;2022-07-29T13:14:12;21.20;99.90
17146;DHT22;8688;54.444;18.444;2022-07-29T13:17:01;21.00;99.90
17146;DHT22;8688;54.444;18.444;2022-07-29T13:19:36;21.00;1.00
17146;DHT22;8688;54.444;18.444;2022-07-29T13:22:04;21.20;99.90
17146;DHT22;8688;54.444;18.444;2022-07-29T13:24:31;20.90;1.00
17146;DHT22;8688;54.444;18.444;2022-07-29T13:27:00;20.50;1.00
17146;DHT22;8688;54.444;18.444;2022-07-29T13:29:28;20.50;1.00
17146;DHT22;8688;54.444;18.444;2022-07-29T13:31:55;20.50;1.00
17146;DHT22;8688;54.444;18.444;2022-07-29T13:34:23;20.30;1.00
17146;DHT22;8688;54.444;18.444;2022-07-29T13:36:51;20.00;1.00
17146;DHT22;8688;54.444;18.444;2022-07-29T13:39:18;20.00;1.00
17146;DHT22;8688;54.444;18.444;2022-07-29T13:41:45;19.80;1.00
17146;DHT22;8688;54.444;18.444;2022-07-29T13:44:14;19.70;1.00
17146;DHT22;8688;54.444;18.444;2022-07-29T13:46:41;19.90;1.00
17146;DHT22;8688;54.444;18.444;2022-07-29T13:49:09;20.20;1.00
17146;DHT22;8688;54.444;18.444;2022-07-29T13:51:38;20.50;1.00
17146;DHT22;8688;54.444;18.444;2022-07-29T13:54:06;20.90;1.00
17146;DHT22;8688;54.444;18.444;2022-07-29T13:56:33;20.90;1.00
17146;DHT22;8688;54.444;18.444;2022-07-29T13:59:01;21.10;1.00
17146;DHT22;8688;54.444;18.444;2022-07-29T14:01:30;21.10;1.00
17146;DHT22;8688;54.444;18.444;2022-07-29T14:03:57;21.40;1.00
17146;DHT22;8688;54.444;18.444;2022-07-29T14:06:24;21.60;1.00
17146;DHT22;8688;54.444;18.444;2022-07-29T14:08:52;21.70;1.00
17146;DHT22;8688;54.444;18.444;2022-07-29T14:11:19;21.90;1.00
17146;DHT22;8688;54.444;18.444;2022-07-29T14:13:47;22.10;1.00
17146;DHT22;8688;54.444;18.444;2022-07-29T14:16:14;22.20;1.00
17146;DHT22;8688;54.444;18.444;2022-07-29T14:18:43;22.20;1.00
17146;DHT22;8688;54.444;18.444;2022-07-29T14:21:11;22.40;1.00
17146;DHT22;8688;54.444;18.444;2022-07-29T14:23:39;22.60;1.00
17146;DHT22;8688;54.444;18.444;2022-07-29T14:26:09;22.20;1.00
17146;DHT22;8688;54.444;18.444;2022-07-29T14:28:37;22.10;1.00
17146;DHT22;8688;54.444;18.444;2022-07-29T14:31:04;22.00;1.00
17146;DHT22;8688;54.444;18.444;2022-07-29T14:33:32;22.20;1.00
17146;DHT22;8688;54.444;18.444;2022-07-29T14:36:00;22.30;1.00
17146;DHT22;8688;54.444;18.444;2022-07-29T14:38:28;22.40;1.00
17146;DHT22;8688;54.444;18.444;2022-07-29T14:40:55;22.00;1.00
17146;DHT22;8688;54.444;18.444;2022-07-29T14:43:22;21.80;1.00
17146;DHT22;8688;54.444;18.444;2022-07-29T14:45:50;21.70;1.00
17146;DHT22;8688;54.444;18.444;2022-07-29T14:48:19;21.70;1.00
17146;DHT22;8688;54.444;18.444;2022-07-29T14:50:46;21.90;1.00
17146;DHT22;8688;54.444;18.444;2022-07-29T14:53:15;22.10;1.00
17146;DHT22;8688;54.444;18.444;2022-07-29T14:55:44;22.00;1.00
17146;DHT22;8688;54.444;18.444;2022-07-29T14:58:11;21.80;1.00
17146;DHT22;8688;54.444;18.444;2022-07-29T15:00:50;21.40;99.90
17146;DHT22;8688;54.444;18.444;2022-07-29T15:03:18;20.90;1.00
17146;DHT22;8688;54.444;18.444;2022-07-29T15:05:45;20.80;1.00
17146;DHT22;8688;54.444;18.444;2022-07-29T15:08:14;20.80;1.00
17146;DHT22;8688;54.444;18.444;2022-07-29T15:10:42;20.80;99.90
17146;DHT22;8688;54.444;18.444;2022-07-29T15:13:09;21.00;1.00
17146;DHT22;8688;54.444;18.444;2022-07-29T15:15:37;21.20;1.00
17146;DHT22;8688;54.444;18.444;2022-07-29T15:18:05;21.40;1.00
17146;DHT22;8688;54.444;18.444;2022-07-29T15:20:33;21.60;1.00
17146;DHT22;8688;54.444;18.444;2022-07-29T15:23:00;21.50;1.00
17146;DHT22;8688;54.444;18.444;2022-07-29T15:25:30;21.40;1.00
17146;DHT22;8688;54.444;18.444;2022-07-29T15:27:58;21.40;1.00
17146;DHT22;8688;54.444;18.444;2022-07-29T15:30:31;21.50;1.00
17146;DHT22;8688;54.444;18.444;2022-07-29T15:32:58;21.80;1.00
17146;DHT22;8688;54.444;18.444;2022-07-29T15:35:26;21.70;1.00
17146;DHT22;8688;54.444;18.444;2022-07-29T15:37:53;21.60;1.00
17146;DHT22;8688;54.444;18.444;2022-07-29T15:40:20;21.40;1.00
17146;DHT22;8688;54.444;18.444;2022-07-29T15:42:49;21.20;1.00
17146;DHT22;8688;54.444;18.444;2022-07-29T15:45:19;20.60;1.00
17146;DHT22;8688;54.444;18.444;2022-07-29T15:47:46;20.30;1.00
17146;DHT22;8688;54.444;18.444;2022-07-29T15:50:14;20.00;1.00
17146;DHT22;8688;54.444;18.444;2022-07-29T15:52:43;19.80;1.00
17146;DHT22;8688;54.444;18.444;2022-07-29T15:55:11;19.80;1.00
17146;DHT22;8688;54.444;18.444;2022-07-29T15:57:38;19.90;1.00
17146;DHT22;8688;54.444;18.444;2022-07-29T16:00:09;20.00;1.00